This is the latest recevied weather packets stored in our database for station/object NE1CU. If no packets are shown the sender has not sent any weather packets the latest 1 day(s).
| Time | Temp. | Humidity | Pressure | Rain* | Wind** | Luminosity | Snow |
|---|---|---|---|---|---|---|---|
| 1778011400 | 23.33° C | 51% | 1008.7 hPa | 0 mm | 1.79 m/s, 227° | 567 W/m² | - |
| 1778011096 | 22.78° C | 50% | 1008.7 hPa | 0 mm | 2.24 m/s, 250° | 605 W/m² | - |
| 1778010794 | 23.33° C | 52% | 1008.8 hPa | 0 mm | 0.89 m/s, 179° | 627 W/m² | - |
| 1778010490 | 22.78° C | 53% | 1008.8 hPa | 0 mm | 0.45 m/s, 133° | 638 W/m² | - |
| 1778010188 | 23.33° C | 51% | 1008.7 hPa | 0 mm | 2.24 m/s, 105° | 655 W/m² | - |
| 1778009882 | 23.33° C | 50% | 1008.7 hPa | 0 mm | 1.79 m/s, 236° | 671 W/m² | - |
| 1778009581 | 22.78° C | 54% | 1009 hPa | 0 mm | 1.79 m/s, 149° | 672 W/m² | - |
| 1778009279 | 22.78° C | 53% | 1008.9 hPa | 0 mm | 1.79 m/s, 188° | 572 W/m² | - |
| 1778008976 | 23.33° C | 53% | 1008.9 hPa | 0 mm | 1.34 m/s, 110° | 581 W/m² | - |
| 1778008674 | 22.78° C | 52% | 1009.1 hPa | 0 mm | 1.79 m/s, 201° | 684 W/m² | - |
| 1778008372 | 23.33° C | 51% | 1009.4 hPa | 0 mm | 2.24 m/s, 174° | 750 W/m² | - |
| 1778008068 | 23.33° C | 53% | 1009.3 hPa | 0 mm | 1.79 m/s, 173° | 769 W/m² | - |
| 1778007763 | 23.33° C | 51% | 1009.5 hPa | 0 mm | 1.79 m/s, 165° | 781 W/m² | - |
| 1778007460 | 23.33° C | 52% | 1009.5 hPa | 0 mm | 1.79 m/s, 210° | 790 W/m² | - |
| 1778007157 | 23.33° C | 54% | 1009.5 hPa | 0 mm | 1.34 m/s, 166° | 803 W/m² | - |
| 1778006852 | 23.33° C | 51% | 1009.7 hPa | 0 mm | 1.34 m/s, 248° | 816 W/m² | - |
| 1778006550 | 23.33° C | 52% | 1009.6 hPa | 0 mm | 2.24 m/s, 146° | 826 W/m² | - |
| 1778006247 | 22.78° C | 55% | 1009.5 hPa | 0 mm | 0.89 m/s, 227° | 835 W/m² | - |
| 1778005951 | 23.33° C | 53% | 1009.5 hPa | 0 mm | 1.79 m/s, 135° | 849 W/m² | - |
| 1778005640 | 23.33° C | 53% | 1009.5 hPa | 0 mm | 1.34 m/s, 141° | 859 W/m² | - |
| 1778005338 | 23.33° C | 51% | 1009.4 hPa | 0 mm | 2.68 m/s, 208° | 871 W/m² | - |
| 1778005034 | 23.33° C | 52% | 1009.5 hPa | 0 mm | 1.79 m/s, 186° | 871 W/m² | - |
| 1778004732 | 23.33° C | 51% | 1009.6 hPa | 0 mm | 2.24 m/s, 179° | 882 W/m² | - |
| 1778004428 | 23.33° C | 52% | 1009.6 hPa | 0 mm | 1.79 m/s, 174° | 892 W/m² | - |
| 1778004125 | 23.33° C | 52% | 1009.5 hPa | 0 mm | 1.34 m/s, 217° | 899 W/m² | - |
* Rain latest hour (hover to see other rain measurements)
** Current wind speed in m/s (hover to see current wind gust speed)